sensor_id;sensor_type;location;lat;lon;timestamp;P1;durP1;ratioP1;P2;durP2;ratioP2
23722;SDS011;12042;52.136;5.584;2023-04-03T00:01:05;4.10;;;2.00;;
23722;SDS011;12042;52.136;5.584;2023-04-03T00:03:31;1.95;;;1.73;;
23722;SDS011;12042;52.136;5.584;2023-04-03T00:05:57;3.38;;;1.75;;
23722;SDS011;12042;52.136;5.584;2023-04-03T00:08:23;2.78;;;1.52;;
23722;SDS011;12042;52.136;5.584;2023-04-03T00:10:48;2.25;;;1.70;;
23722;SDS011;12042;52.136;5.584;2023-04-03T00:13:15;5.25;;;2.17;;
23722;SDS011;12042;52.136;5.584;2023-04-03T00:15:41;1.65;;;1.55;;
23722;SDS011;12042;52.136;5.584;2023-04-03T00:18:07;5.45;;;1.75;;
23722;SDS011;12042;52.136;5.584;2023-04-03T00:20:33;2.03;;;1.80;;
23722;SDS011;12042;52.136;5.584;2023-04-03T00:22:59;2.45;;;1.85;;
23722;SDS011;12042;52.136;5.584;2023-04-03T00:25:26;2.63;;;1.73;;
23722;SDS011;12042;52.136;5.584;2023-04-03T00:27:52;2.03;;;1.50;;
23722;SDS011;12042;52.136;5.584;2023-04-03T00:30:18;2.17;;;1.60;;
23722;SDS011;12042;52.136;5.584;2023-04-03T00:32:45;2.00;;;1.80;;
23722;SDS011;12042;52.136;5.584;2023-04-03T00:35:12;3.92;;;1.70;;
23722;SDS011;12042;52.136;5.584;2023-04-03T00:37:40;4.53;;;1.58;;
23722;SDS011;12042;52.136;5.584;2023-04-03T00:40:07;2.00;;;1.70;;
23722;SDS011;12042;52.136;5.584;2023-04-03T00:42:35;1.60;;;1.50;;
23722;SDS011;12042;52.136;5.584;2023-04-03T00:47:28;1.83;;;1.60;;
23722;SDS011;12042;52.136;5.584;2023-04-03T00:49:55;1.75;;;1.65;;
23722;SDS011;12042;52.136;5.584;2023-04-03T00:52:23;3.90;;;1.80;;
23722;SDS011;12042;52.136;5.584;2023-04-03T00:54:53;3.30;;;1.65;;
23722;SDS011;12042;52.136;5.584;2023-04-03T00:57:22;2.45;;;1.63;;
23722;SDS011;12042;52.136;5.584;2023-04-03T00:59:49;2.17;;;1.80;;
23722;SDS011;12042;52.136;5.584;2023-04-03T01:02:18;4.97;;;1.80;;
23722;SDS011;12042;52.136;5.584;2023-04-03T01:04:44;5.47;;;1.95;;
23722;SDS011;12042;52.136;5.584;2023-04-03T01:07:15;3.80;;;1.63;;
23722;SDS011;12042;52.136;5.584;2023-04-03T01:09:48;4.22;;;1.90;;
23722;SDS011;12042;52.136;5.584;2023-04-03T01:12:25;1.67;;;1.55;;
23722;SDS011;12042;52.136;5.584;2023-04-03T01:14:52;2.63;;;1.60;;
23722;SDS011;12042;52.136;5.584;2023-04-03T01:17:32;3.50;;;2.25;;
23722;SDS011;12042;52.136;5.584;2023-04-03T01:25:34;6.00;;;2.47;;
23722;SDS011;12042;52.136;5.584;2023-04-03T01:28:02;3.25;;;2.13;;
23722;SDS011;12042;52.136;5.584;2023-04-03T01:30:36;2.45;;;1.88;;
23722;SDS011;12042;52.136;5.584;2023-04-03T01:33:09;2.10;;;1.90;;
23722;SDS011;12042;52.136;5.584;2023-04-03T01:35:35;2.15;;;1.95;;
23722;SDS011;12042;52.136;5.584;2023-04-03T01:38:00;1.95;;;1.85;;
23722;SDS011;12042;52.136;5.584;2023-04-03T01:40:26;3.97;;;1.70;;
23722;SDS011;12042;52.136;5.584;2023-04-03T01:42:51;2.97;;;1.85;;
23722;SDS011;12042;52.136;5.584;2023-04-03T01:45:17;3.95;;;2.00;;
23722;SDS011;12042;52.136;5.584;2023-04-03T01:47:42;4.05;;;2.25;;
23722;SDS011;12042;52.136;5.584;2023-04-03T01:50:08;3.25;;;2.17;;
23722;SDS011;12042;52.136;5.584;2023-04-03T01:52:34;3.05;;;2.20;;
23722;SDS011;12042;52.136;5.584;2023-04-03T01:54:59;2.00;;;1.75;;
23722;SDS011;12042;52.136;5.584;2023-04-03T01:57:25;2.58;;;1.90;;
23722;SDS011;12042;52.136;5.584;2023-04-03T01:59:51;3.60;;;2.20;;
23722;SDS011;12042;52.136;5.584;2023-04-03T02:02:16;3.92;;;2.22;;
23722;SDS011;12042;52.136;5.584;2023-04-03T02:04:42;3.08;;;1.90;;
23722;SDS011;12042;52.136;5.584;2023-04-03T02:07:07;4.50;;;2.13;;
23722;SDS011;12042;52.136;5.584;2023-04-03T02:09:33;4.82;;;2.33;;
23722;SDS011;12042;52.136;5.584;2023-04-03T02:11:59;3.20;;;1.92;;
23722;SDS011;12042;52.136;5.584;2023-04-03T02:14:24;3.28;;;1.90;;
23722;SDS011;12042;52.136;5.584;2023-04-03T02:16:52;3.05;;;2.10;;
23722;SDS011;12042;52.136;5.584;2023-04-03T02:19:18;2.30;;;2.17;;
23722;SDS011;12042;52.136;5.584;2023-04-03T02:21:43;4.53;;;2.72;;
23722;SDS011;12042;52.136;5.584;2023-04-03T02:24:09;3.22;;;1.95;;
23722;SDS011;12042;52.136;5.584;2023-04-03T02:26:35;3.85;;;2.08;;
23722;SDS011;12042;52.136;5.584;2023-04-03T02:29:00;4.93;;;2.35;;
23722;SDS011;12042;52.136;5.584;2023-04-03T02:31:26;2.78;;;2.30;;
23722;SDS011;12042;52.136;5.584;2023-04-03T02:33:51;4.82;;;2.28;;
23722;SDS011;12042;52.136;5.584;2023-04-03T02:36:17;4.28;;;2.40;;
23722;SDS011;12042;52.136;5.584;2023-04-03T02:38:42;6.57;;;2.17;;
23722;SDS011;12042;52.136;5.584;2023-04-03T02:41:09;6.68;;;2.42;;
23722;SDS011;12042;52.136;5.584;2023-04-03T02:43:36;2.47;;;2.28;;
23722;SDS011;12042;52.136;5.584;2023-04-03T02:46:02;5.60;;;2.30;;
23722;SDS011;12042;52.136;5.584;2023-04-03T02:48:28;4.53;;;2.35;;
23722;SDS011;12042;52.136;5.584;2023-04-03T02:50:53;6.55;;;2.42;;
23722;SDS011;12042;52.136;5.584;2023-04-03T02:53:19;3.78;;;2.10;;
23722;SDS011;12042;52.136;5.584;2023-04-03T02:55:45;3.50;;;2.17;;
23722;SDS011;12042;52.136;5.584;2023-04-03T02:58:11;4.78;;;2.63;;
23722;SDS011;12042;52.136;5.584;2023-04-03T03:00:37;4.93;;;2.47;;
23722;SDS011;12042;52.136;5.584;2023-04-03T03:03:03;3.22;;;2.33;;
23722;SDS011;12042;52.136;5.584;2023-04-03T03:05:29;3.30;;;2.45;;
23722;SDS011;12042;52.136;5.584;2023-04-03T03:07:55;3.65;;;2.40;;
23722;SDS011;12042;52.136;5.584;2023-04-03T03:10:21;4.13;;;2.47;;
23722;SDS011;12042;52.136;5.584;2023-04-03T03:12:47;4.43;;;2.85;;
23722;SDS011;12042;52.136;5.584;2023-04-03T03:15:13;5.75;;;2.85;;
23722;SDS011;12042;52.136;5.584;2023-04-03T03:17:40;2.88;;;2.42;;
23722;SDS011;12042;52.136;5.584;2023-04-03T03:20:06;5.85;;;2.47;;
23722;SDS011;12042;52.136;5.584;2023-04-03T03:22:33;6.65;;;2.60;;
23722;SDS011;12042;52.136;5.584;2023-04-03T03:24:59;4.18;;;2.70;;
23722;SDS011;12042;52.136;5.584;2023-04-03T03:27:25;5.75;;;3.00;;
23722;SDS011;12042;52.136;5.584;2023-04-03T03:29:51;7.35;;;2.63;;
23722;SDS011;12042;52.136;5.584;2023-04-03T03:32:17;5.10;;;2.40;;
23722;SDS011;12042;52.136;5.584;2023-04-03T03:34:42;3.97;;;2.75;;
23722;SDS011;12042;52.136;5.584;2023-04-03T03:37:08;4.75;;;2.53;;
23722;SDS011;12042;52.136;5.584;2023-04-03T03:39:33;5.70;;;2.80;;
23722;SDS011;12042;52.136;5.584;2023-04-03T03:41:59;7.03;;;2.67;;
23722;SDS011;12042;52.136;5.584;2023-04-03T03:44:24;6.00;;;2.90;;
23722;SDS011;12042;52.136;5.584;2023-04-03T03:46:50;7.43;;;2.97;;
23722;SDS011;12042;52.136;5.584;2023-04-03T03:49:16;5.35;;;2.80;;
23722;SDS011;12042;52.136;5.584;2023-04-03T03:51:41;6.18;;;2.65;;
23722;SDS011;12042;52.136;5.584;2023-04-03T03:54:07;6.20;;;2.88;;
23722;SDS011;12042;52.136;5.584;2023-04-03T03:56:33;3.85;;;2.67;;
23722;SDS011;12042;52.136;5.584;2023-04-03T03:58:58;4.45;;;3.00;;
23722;SDS011;12042;52.136;5.584;2023-04-03T04:01:24;7.40;;;2.88;;
23722;SDS011;12042;52.136;5.584;2023-04-03T04:03:50;6.13;;;3.00;;
23722;SDS011;12042;52.136;5.584;2023-04-03T04:06:16;3.85;;;3.05;;
23722;SDS011;12042;52.136;5.584;2023-04-03T04:08:42;5.75;;;2.60;;
23722;SDS011;12042;52.136;5.584;2023-04-03T04:11:08;5.72;;;2.80;;
23722;SDS011;12042;52.136;5.584;2023-04-03T04:13:34;6.05;;;3.03;;
23722;SDS011;12042;52.136;5.584;2023-04-03T04:16:00;8.23;;;3.08;;
23722;SDS011;12042;52.136;5.584;2023-04-03T04:18:25;6.07;;;2.80;;
23722;SDS011;12042;52.136;5.584;2023-04-03T04:20:51;5.10;;;2.92;;
23722;SDS011;12042;52.136;5.584;2023-04-03T04:23:17;3.95;;;2.80;;
23722;SDS011;12042;52.136;5.584;2023-04-03T04:25:44;8.30;;;3.42;;
23722;SDS011;12042;52.136;5.584;2023-04-03T04:28:11;4.65;;;3.10;;
23722;SDS011;12042;52.136;5.584;2023-04-03T04:30:37;4.85;;;2.90;;
23722;SDS011;12042;52.136;5.584;2023-04-03T04:33:02;4.55;;;3.08;;
23722;SDS011;12042;52.136;5.584;2023-04-03T04:35:28;4.20;;;2.97;;
23722;SDS011;12042;52.136;5.584;2023-04-03T04:37:54;6.82;;;3.42;;
23722;SDS011;12042;52.136;5.584;2023-04-03T04:40:19;5.10;;;3.03;;
23722;SDS011;12042;52.136;5.584;2023-04-03T04:42:45;8.85;;;2.97;;
23722;SDS011;12042;52.136;5.584;2023-04-03T04:45:11;4.40;;;3.00;;
23722;SDS011;12042;52.136;5.584;2023-04-03T04:47:37;7.03;;;3.15;;
23722;SDS011;12042;52.136;5.584;2023-04-03T04:50:02;6.32;;;3.10;;
23722;SDS011;12042;52.136;5.584;2023-04-03T04:52:29;5.85;;;3.28;;
23722;SDS011;12042;52.136;5.584;2023-04-03T04:54:54;5.22;;;3.38;;
23722;SDS011;12042;52.136;5.584;2023-04-03T04:57:20;7.20;;;3.10;;
23722;SDS011;12042;52.136;5.584;2023-04-03T04:59:45;5.97;;;3.40;;
23722;SDS011;12042;52.136;5.584;2023-04-03T05:02:11;6.40;;;2.70;;
23722;SDS011;12042;52.136;5.584;2023-04-03T05:04:37;4.95;;;3.40;;
23722;SDS011;12042;52.136;5.584;2023-04-03T05:07:02;8.77;;;3.30;;
23722;SDS011;12042;52.136;5.584;2023-04-03T05:09:28;4.35;;;2.90;;
23722;SDS011;12042;52.136;5.584;2023-04-03T05:11:54;3.55;;;3.00;;
23722;SDS011;12042;52.136;5.584;2023-04-03T05:14:21;5.55;;;3.05;;
23722;SDS011;12042;52.136;5.584;2023-04-03T05:16:46;3.63;;;3.20;;
23722;SDS011;12042;52.136;5.584;2023-04-03T05:19:12;7.78;;;3.20;;
23722;SDS011;12042;52.136;5.584;2023-04-03T05:21:38;5.63;;;3.15;;
23722;SDS011;12042;52.136;5.584;2023-04-03T05:24:04;7.32;;;2.80;;
23722;SDS011;12042;52.136;5.584;2023-04-03T05:26:30;6.82;;;2.97;;
23722;SDS011;12042;52.136;5.584;2023-04-03T05:28:56;7.35;;;2.75;;
23722;SDS011;12042;52.136;5.584;2023-04-03T05:31:21;3.22;;;2.80;;
23722;SDS011;12042;52.136;5.584;2023-04-03T05:33:47;5.25;;;3.00;;
23722;SDS011;12042;52.136;5.584;2023-04-03T05:36:13;6.25;;;3.10;;
23722;SDS011;12042;52.136;5.584;2023-04-03T05:38:39;6.57;;;3.00;;
23722;SDS011;12042;52.136;5.584;2023-04-03T05:41:05;5.25;;;3.08;;
23722;SDS011;12042;52.136;5.584;2023-04-03T05:43:30;5.22;;;2.95;;
23722;SDS011;12042;52.136;5.584;2023-04-03T05:45:56;6.10;;;3.00;;
23722;SDS011;12042;52.136;5.584;2023-04-03T05:48:22;7.93;;;3.45;;
23722;SDS011;12042;52.136;5.584;2023-04-03T05:50:48;5.50;;;3.35;;
23722;SDS011;12042;52.136;5.584;2023-04-03T05:53:21;7.97;;;3.45;;
23722;SDS011;12042;52.136;5.584;2023-04-03T05:55:49;8.38;;;4.47;;
23722;SDS011;12042;52.136;5.584;2023-04-03T05:58:15;6.68;;;3.70;;
23722;SDS011;12042;52.136;5.584;2023-04-03T06:00:41;12.80;;;4.40;;
23722;SDS011;12042;52.136;5.584;2023-04-03T06:03:06;5.53;;;4.82;;
23722;SDS011;12042;52.136;5.584;2023-04-03T06:05:32;6.05;;;3.22;;
23722;SDS011;12042;52.136;5.584;2023-04-03T06:07:57;3.88;;;3.22;;
23722;SDS011;12042;52.136;5.584;2023-04-03T06:10:23;8.40;;;3.22;;
23722;SDS011;12042;52.136;5.584;2023-04-03T06:12:49;6.95;;;3.70;;
23722;SDS011;12042;52.136;5.584;2023-04-03T06:15:16;5.20;;;2.75;;
23722;SDS011;12042;52.136;5.584;2023-04-03T06:17:42;6.78;;;3.13;;
23722;SDS011;12042;52.136;5.584;2023-04-03T06:20:08;7.70;;;3.05;;
23722;SDS011;12042;52.136;5.584;2023-04-03T06:22:34;5.95;;;3.38;;
23722;SDS011;12042;52.136;5.584;2023-04-03T06:25:00;7.43;;;3.17;;
23722;SDS011;12042;52.136;5.584;2023-04-03T06:27:26;5.60;;;3.08;;
23722;SDS011;12042;52.136;5.584;2023-04-03T06:29:51;7.35;;;3.83;;
23722;SDS011;12042;52.136;5.584;2023-04-03T06:32:17;8.02;;;3.67;;
23722;SDS011;12042;52.136;5.584;2023-04-03T06:34:42;4.38;;;2.80;;
23722;SDS011;12042;52.136;5.584;2023-04-03T06:37:19;7.65;;;3.25;;
23722;SDS011;12042;52.136;5.584;2023-04-03T06:39:47;7.10;;;3.25;;
23722;SDS011;12042;52.136;5.584;2023-04-03T06:42:13;4.68;;;2.80;;
23722;SDS011;12042;52.136;5.584;2023-04-03T06:44:39;3.25;;;2.70;;
23722;SDS011;12042;52.136;5.584;2023-04-03T06:47:04;5.50;;;2.85;;
23722;SDS011;12042;52.136;5.584;2023-04-03T06:49:30;5.85;;;2.63;;
23722;SDS011;12042;52.136;5.584;2023-04-03T06:51:57;5.38;;;2.50;;
23722;SDS011;12042;52.136;5.584;2023-04-03T06:54:22;3.03;;;2.75;;
23722;SDS011;12042;52.136;5.584;2023-04-03T06:56:48;4.10;;;2.85;;
23722;SDS011;12042;52.136;5.584;2023-04-03T06:59:14;3.88;;;2.42;;
23722;SDS011;12042;52.136;5.584;2023-04-03T07:01:40;8.55;;;2.65;;
23722;SDS011;12042;52.136;5.584;2023-04-03T07:04:07;4.68;;;2.60;;
23722;SDS011;12042;52.136;5.584;2023-04-03T07:06:33;5.97;;;2.58;;
23722;SDS011;12042;52.136;5.584;2023-04-03T07:08:59;5.03;;;2.83;;
23722;SDS011;12042;52.136;5.584;2023-04-03T07:11:25;6.50;;;2.60;;
23722;SDS011;12042;52.136;5.584;2023-04-03T07:13:52;3.88;;;2.05;;
23722;SDS011;12042;52.136;5.584;2023-04-03T07:16:18;4.15;;;2.60;;
23722;SDS011;12042;52.136;5.584;2023-04-03T07:18:44;6.15;;;2.75;;
23722;SDS011;12042;52.136;5.584;2023-04-03T07:21:10;6.15;;;2.60;;
23722;SDS011;12042;52.136;5.584;2023-04-03T07:23:37;3.28;;;2.65;;
23722;SDS011;12042;52.136;5.584;2023-04-03T07:26:03;4.82;;;2.63;;
23722;SDS011;12042;52.136;5.584;2023-04-03T07:28:29;6.82;;;2.30;;
23722;SDS011;12042;52.136;5.584;2023-04-03T07:31:05;8.00;;;2.25;;
23722;SDS011;12042;52.136;5.584;2023-04-03T07:33:33;7.10;;;2.10;;
23722;SDS011;12042;52.136;5.584;2023-04-03T07:36:00;3.22;;;2.20;;
23722;SDS011;12042;52.136;5.584;2023-04-03T07:38:27;3.35;;;2.22;;
23722;SDS011;12042;52.136;5.584;2023-04-03T07:40:53;2.80;;;2.28;;
23722;SDS011;12042;52.136;5.584;2023-04-03T07:43:19;3.47;;;1.80;;
23722;SDS011;12042;52.136;5.584;2023-04-03T07:45:46;3.70;;;2.03;;
23722;SDS011;12042;52.136;5.584;2023-04-03T07:48:16;4.90;;;1.90;;
23722;SDS011;12042;52.136;5.584;2023-04-03T07:50:43;5.82;;;2.30;;
23722;SDS011;12042;52.136;5.584;2023-04-03T07:53:09;5.40;;;2.00;;
23722;SDS011;12042;52.136;5.584;2023-04-03T07:55:35;4.47;;;2.00;;
23722;SDS011;12042;52.136;5.584;2023-04-03T07:58:07;2.80;;;1.65;;
23722;SDS011;12042;52.136;5.584;2023-04-03T08:00:37;2.33;;;1.60;;
23722;SDS011;12042;52.136;5.584;2023-04-03T08:03:03;4.35;;;1.92;;
23722;SDS011;12042;52.136;5.584;2023-04-03T08:05:29;3.30;;;2.05;;
23722;SDS011;12042;52.136;5.584;2023-04-03T08:07:55;6.43;;;2.60;;
23722;SDS011;12042;52.136;5.584;2023-04-03T08:10:20;2.10;;;1.52;;
23722;SDS011;12042;52.136;5.584;2023-04-03T08:12:46;3.70;;;1.40;;
23722;SDS011;12042;52.136;5.584;2023-04-03T08:15:12;3.35;;;1.70;;
23722;SDS011;12042;52.136;5.584;2023-04-03T08:17:38;4.47;;;1.30;;
23722;SDS011;12042;52.136;5.584;2023-04-03T08:20:04;1.85;;;1.13;;
23722;SDS011;12042;52.136;5.584;2023-04-03T08:22:32;1.10;;;1.00;;
23722;SDS011;12042;52.136;5.584;2023-04-03T08:24:58;4.50;;;1.23;;
23722;SDS011;12042;52.136;5.584;2023-04-03T08:27:24;3.50;;;1.40;;
23722;SDS011;12042;52.136;5.584;2023-04-03T08:29:51;3.67;;;1.20;;
23722;SDS011;12042;52.136;5.584;2023-04-03T08:32:17;2.40;;;1.20;;
23722;SDS011;12042;52.136;5.584;2023-04-03T08:34:43;1.20;;;0.90;;
23722;SDS011;12042;52.136;5.584;2023-04-03T08:37:08;0.90;;;0.90;;
23722;SDS011;12042;52.136;5.584;2023-04-03T08:39:34;4.72;;;1.10;;
23722;SDS011;12042;52.136;5.584;2023-04-03T08:42:02;2.13;;;1.17;;
23722;SDS011;12042;52.136;5.584;2023-04-03T08:44:52;1.65;;;0.88;;
23722;SDS011;12042;52.136;5.584;2023-04-03T08:49:47;2.00;;;0.70;;
23722;SDS011;12042;52.136;5.584;2023-04-03T08:52:21;1.05;;;0.80;;
23722;SDS011;12042;52.136;5.584;2023-04-03T08:55:01;2.78;;;2.50;;
23722;SDS011;12042;52.136;5.584;2023-04-03T08:57:48;1.27;;;0.68;;
23722;SDS011;12042;52.136;5.584;2023-04-03T09:00:18;1.75;;;1.00;;
23722;SDS011;12042;52.136;5.584;2023-04-03T09:02:48;2.10;;;1.50;;
23722;SDS011;12042;52.136;5.584;2023-04-03T09:05:17;1.30;;;1.20;;
23722;SDS011;12042;52.136;5.584;2023-04-03T09:07:49;0.68;;;0.68;;
23722;SDS011;12042;52.136;5.584;2023-04-03T09:10:27;1.85;;;0.65;;
23722;SDS011;12042;52.136;5.584;2023-04-03T09:13:33;1.27;;;0.60;;
23722;SDS011;12042;52.136;5.584;2023-04-03T09:15:55;1.38;;;0.80;;
23722;SDS011;12042;52.136;5.584;2023-04-03T09:18:28;1.75;;;0.60;;
23722;SDS011;12042;52.136;5.584;2023-04-03T09:23:28;0.50;;;0.50;;
23722;SDS011;12042;52.136;5.584;2023-04-03T09:26:03;1.30;;;0.60;;
23722;SDS011;12042;52.136;5.584;2023-04-03T09:28:34;0.63;;;0.40;;
23722;SDS011;12042;52.136;5.584;2023-04-03T09:31:05;0.80;;;0.40;;
23722;SDS011;12042;52.136;5.584;2023-04-03T09:33:43;0.85;;;0.60;;
23722;SDS011;12042;52.136;5.584;2023-04-03T09:36:10;0.60;;;0.50;;
23722;SDS011;12042;52.136;5.584;2023-04-03T09:38:36;0.45;;;0.40;;
23722;SDS011;12042;52.136;5.584;2023-04-03T09:41:06;0.52;;;0.50;;
23722;SDS011;12042;52.136;5.584;2023-04-03T09:43:38;1.02;;;0.50;;
23722;SDS011;12042;52.136;5.584;2023-04-03T09:46:17;1.65;;;0.50;;
23722;SDS011;12042;52.136;5.584;2023-04-03T09:48:56;3.40;;;0.43;;
23722;SDS011;12042;52.136;5.584;2023-04-03T09:51:27;0.63;;;0.40;;
23722;SDS011;12042;52.136;5.584;2023-04-03T09:53:53;0.40;;;0.40;;
23722;SDS011;12042;52.136;5.584;2023-04-03T09:56:21;0.93;;;0.35;;
23722;SDS011;12042;52.136;5.584;2023-04-03T09:58:51;0.63;;;0.55;;
23722;SDS011;12042;52.136;5.584;2023-04-03T10:01:30;0.52;;;0.47;;
23722;SDS011;12042;52.136;5.584;2023-04-03T10:06:39;2.05;;;0.57;;
23722;SDS011;12042;52.136;5.584;2023-04-03T10:09:24;1.35;;;0.50;;
23722;SDS011;12042;52.136;5.584;2023-04-03T10:14:26;1.17;;;0.73;;
23722;SDS011;12042;52.136;5.584;2023-04-03T10:19:43;1.75;;;0.50;;
23722;SDS011;12042;52.136;5.584;2023-04-03T10:22:13;0.73;;;0.30;;
23722;SDS011;12042;52.136;5.584;2023-04-03T10:38:19;0.63;;;0.50;;
23722;SDS011;12042;52.136;5.584;2023-04-03T10:40:55;2.97;;;0.80;;
23722;SDS011;12042;52.136;5.584;2023-04-03T10:44:14;1.23;;;0.50;;
23722;SDS011;12042;52.136;5.584;2023-04-03T10:46:27;0.50;;;0.50;;
23722;SDS011;12042;52.136;5.584;2023-04-03T10:51:45;1.42;;;0.55;;
23722;SDS011;12042;52.136;5.584;2023-04-03T10:54:34;3.17;;;0.90;;
23722;SDS011;12042;52.136;5.584;2023-04-03T10:57:10;1.38;;;0.50;;
23722;SDS011;12042;52.136;5.584;2023-04-03T10:59:40;2.97;;;0.70;;
23722;SDS011;12042;52.136;5.584;2023-04-03T11:02:16;0.85;;;0.50;;
23722;SDS011;12042;52.136;5.584;2023-04-03T11:04:44;1.10;;;0.60;;
23722;SDS011;12042;52.136;5.584;2023-04-03T11:07:23;3.85;;;0.60;;
23722;SDS011;12042;52.136;5.584;2023-04-03T11:10:02;2.75;;;0.60;;
23722;SDS011;12042;52.136;5.584;2023-04-03T11:12:36;0.50;;;0.50;;
23722;SDS011;12042;52.136;5.584;2023-04-03T11:15:03;0.98;;;0.80;;
23722;SDS011;12042;52.136;5.584;2023-04-03T11:17:33;2.67;;;0.70;;
23722;SDS011;12042;52.136;5.584;2023-04-03T11:20:14;0.85;;;0.70;;
23722;SDS011;12042;52.136;5.584;2023-04-03T11:22:50;0.80;;;0.50;;
23722;SDS011;12042;52.136;5.584;2023-04-03T11:25:20;1.55;;;0.88;;
23722;SDS011;12042;52.136;5.584;2023-04-03T11:27:58;2.63;;;0.50;;
23722;SDS011;12042;52.136;5.584;2023-04-03T11:35:52;1.98;;;0.80;;
23722;SDS011;12042;52.136;5.584;2023-04-03T11:38:28;0.75;;;0.60;;
23722;SDS011;12042;52.136;5.584;2023-04-03T11:41:01;1.58;;;0.60;;
23722;SDS011;12042;52.136;5.584;2023-04-03T11:43:30;1.77;;;0.60;;
23722;SDS011;12042;52.136;5.584;2023-04-03T11:46:06;0.50;;;0.50;;
23722;SDS011;12042;52.136;5.584;2023-04-03T11:51:02;1.17;;;0.65;;
23722;SDS011;12042;52.136;5.584;2023-04-03T11:53:53;0.60;;;0.43;;
23722;SDS011;12042;52.136;5.584;2023-04-03T12:01:51;0.88;;;0.40;;
23722;SDS011;12042;52.136;5.584;2023-04-03T12:04:18;1.05;;;0.60;;
23722;SDS011;12042;52.136;5.584;2023-04-03T12:11:57;3.47;;;0.70;;
23722;SDS011;12042;52.136;5.584;2023-04-03T12:14:25;1.05;;;0.50;;
23722;SDS011;12042;52.136;5.584;2023-04-03T12:16:55;0.80;;;0.73;;
23722;SDS011;12042;52.136;5.584;2023-04-03T12:24:29;1.15;;;0.80;;
23722;SDS011;12042;52.136;5.584;2023-04-03T12:29:33;1.73;;;0.85;;
23722;SDS011;12042;52.136;5.584;2023-04-03T12:40:50;1.00;;;0.60;;
23722;SDS011;12042;52.136;5.584;2023-04-03T12:46:36;2.58;;;0.80;;
23722;SDS011;12042;52.136;5.584;2023-04-03T12:49:12;1.20;;;0.77;;
23722;SDS011;12042;52.136;5.584;2023-04-03T12:51:49;1.15;;;0.80;;
23722;SDS011;12042;52.136;5.584;2023-04-03T12:54:16;3.13;;;0.80;;
23722;SDS011;12042;52.136;5.584;2023-04-03T12:56:43;0.77;;;0.70;;
23722;SDS011;12042;52.136;5.584;2023-04-03T12:59:16;2.90;;;1.00;;
23722;SDS011;12042;52.136;5.584;2023-04-03T13:01:53;1.15;;;1.00;;
23722;SDS011;12042;52.136;5.584;2023-04-03T13:04:20;0.80;;;0.60;;
23722;SDS011;12042;52.136;5.584;2023-04-03T13:06:47;2.10;;;1.10;;
23722;SDS011;12042;52.136;5.584;2023-04-03T13:09:18;1.20;;;0.70;;
23722;SDS011;12042;52.136;5.584;2023-04-03T13:11:54;1.98;;;0.90;;
23722;SDS011;12042;52.136;5.584;2023-04-03T13:14:56;1.27;;;0.90;;
23722;SDS011;12042;52.136;5.584;2023-04-03T13:17:25;1.45;;;0.98;;
23722;SDS011;12042;52.136;5.584;2023-04-03T13:19:52;2.72;;;0.73;;
23722;SDS011;12042;52.136;5.584;2023-04-03T13:22:38;1.00;;;0.70;;
23722;SDS011;12042;52.136;5.584;2023-04-03T13:25:13;2.47;;;1.17;;
23722;SDS011;12042;52.136;5.584;2023-04-03T13:27:41;3.15;;;0.95;;
23722;SDS011;12042;52.136;5.584;2023-04-03T13:33:05;1.27;;;0.70;;
23722;SDS011;12042;52.136;5.584;2023-04-03T13:35:43;0.98;;;0.82;;
23722;SDS011;12042;52.136;5.584;2023-04-03T13:40:51;3.75;;;0.73;;
23722;SDS011;12042;52.136;5.584;2023-04-03T13:43:20;1.25;;;0.85;;
23722;SDS011;12042;52.136;5.584;2023-04-03T13:48:37;1.67;;;0.90;;
23722;SDS011;12042;52.136;5.584;2023-04-03T13:53:34;1.20;;;0.98;;
23722;SDS011;12042;52.136;5.584;2023-04-03T13:56:31;2.65;;;1.00;;
23722;SDS011;12042;52.136;5.584;2023-04-03T13:59:04;2.45;;;0.93;;
23722;SDS011;12042;52.136;5.584;2023-04-03T14:07:08;0.80;;;0.80;;
23722;SDS011;12042;52.136;5.584;2023-04-03T14:09:34;2.65;;;1.02;;
23722;SDS011;12042;52.136;5.584;2023-04-03T14:12:05;1.60;;;1.20;;
23722;SDS011;12042;52.136;5.584;2023-04-03T14:14:39;1.80;;;1.20;;
23722;SDS011;12042;52.136;5.584;2023-04-03T14:17:16;2.10;;;1.20;;
23722;SDS011;12042;52.136;5.584;2023-04-03T14:19:44;3.67;;;1.40;;
23722;SDS011;12042;52.136;5.584;2023-04-03T14:22:14;1.55;;;1.45;;
23722;SDS011;12042;52.136;5.584;2023-04-03T14:24:43;1.25;;;1.13;;
23722;SDS011;12042;52.136;5.584;2023-04-03T14:27:22;2.90;;;1.10;;
23722;SDS011;12042;52.136;5.584;2023-04-03T14:29:54;2.85;;;1.38;;
23722;SDS011;12042;52.136;5.584;2023-04-03T14:32:21;2.28;;;1.02;;
23722;SDS011;12042;52.136;5.584;2023-04-03T14:34:48;3.25;;;1.30;;
23722;SDS011;12042;52.136;5.584;2023-04-03T14:37:19;2.90;;;1.52;;
23722;SDS011;12042;52.136;5.584;2023-04-03T14:39:48;2.40;;;1.63;;
23722;SDS011;12042;52.136;5.584;2023-04-03T14:42:15;1.60;;;1.30;;
23722;SDS011;12042;52.136;5.584;2023-04-03T14:44:43;1.50;;;1.40;;
23722;SDS011;12042;52.136;5.584;2023-04-03T14:47:10;2.28;;;1.52;;
23722;SDS011;12042;52.136;5.584;2023-04-03T14:49:36;1.75;;;1.17;;
23722;SDS011;12042;52.136;5.584;2023-04-03T14:52:02;2.90;;;1.48;;
23722;SDS011;12042;52.136;5.584;2023-04-03T14:54:27;2.42;;;1.40;;
23722;SDS011;12042;52.136;5.584;2023-04-03T14:56:54;1.58;;;1.00;;
23722;SDS011;12042;52.136;5.584;2023-04-03T14:59:21;1.55;;;1.08;;
23722;SDS011;12042;52.136;5.584;2023-04-03T15:01:47;1.55;;;1.08;;
23722;SDS011;12042;52.136;5.584;2023-04-03T15:04:17;1.40;;;1.13;;
23722;SDS011;12042;52.136;5.584;2023-04-03T15:06:44;2.35;;;1.20;;
23722;SDS011;12042;52.136;5.584;2023-04-03T15:09:18;2.45;;;1.45;;
23722;SDS011;12042;52.136;5.584;2023-04-03T15:11:49;3.75;;;1.40;;
23722;SDS011;12042;52.136;5.584;2023-04-03T15:14:16;2.03;;;1.40;;
23722;SDS011;12042;52.136;5.584;2023-04-03T15:16:42;1.95;;;1.30;;
23722;SDS011;12042;52.136;5.584;2023-04-03T15:19:08;2.30;;;1.30;;
23722;SDS011;12042;52.136;5.584;2023-04-03T15:21:33;1.60;;;1.30;;
23722;SDS011;12042;52.136;5.584;2023-04-03T15:23:59;2.83;;;1.10;;
23722;SDS011;12042;52.136;5.584;2023-04-03T15:26:25;1.75;;;1.30;;
23722;SDS011;12042;52.136;5.584;2023-04-03T15:28:51;2.45;;;1.27;;
23722;SDS011;12042;52.136;5.584;2023-04-03T15:31:16;1.60;;;1.23;;
23722;SDS011;12042;52.136;5.584;2023-04-03T15:33:42;3.67;;;2.22;;
23722;SDS011;12042;52.136;5.584;2023-04-03T15:36:08;2.70;;;2.35;;
23722;SDS011;12042;52.136;5.584;2023-04-03T15:38:33;2.42;;;1.50;;
23722;SDS011;12042;52.136;5.584;2023-04-03T15:40:59;2.38;;;1.48;;
23722;SDS011;12042;52.136;5.584;2023-04-03T15:43:25;3.85;;;1.40;;
23722;SDS011;12042;52.136;5.584;2023-04-03T15:45:50;2.10;;;1.70;;
23722;SDS011;12042;52.136;5.584;2023-04-03T15:48:16;2.58;;;1.27;;
23722;SDS011;12042;52.136;5.584;2023-04-03T15:50:43;2.97;;;1.60;;
23722;SDS011;12042;52.136;5.584;2023-04-03T15:53:08;4.50;;;1.67;;
23722;SDS011;12042;52.136;5.584;2023-04-03T15:55:35;2.90;;;1.42;;
23722;SDS011;12042;52.136;5.584;2023-04-03T15:58:02;1.55;;;1.40;;
23722;SDS011;12042;52.136;5.584;2023-04-03T16:00:28;1.42;;;1.20;;
23722;SDS011;12042;52.136;5.584;2023-04-03T16:02:56;2.35;;;1.35;;
23722;SDS011;12042;52.136;5.584;2023-04-03T16:05:31;1.83;;;1.40;;
23722;SDS011;12042;52.136;5.584;2023-04-03T16:07:58;2.60;;;1.80;;
23722;SDS011;12042;52.136;5.584;2023-04-03T16:10:25;4.03;;;1.50;;
23722;SDS011;12042;52.136;5.584;2023-04-03T16:12:51;3.50;;;1.50;;
23722;SDS011;12042;52.136;5.584;2023-04-03T16:15:16;1.77;;;1.63;;
23722;SDS011;12042;52.136;5.584;2023-04-03T16:17:42;1.73;;;1.30;;
23722;SDS011;12042;52.136;5.584;2023-04-03T16:20:08;1.80;;;1.58;;
23722;SDS011;12042;52.136;5.584;2023-04-03T16:22:38;3.97;;;1.70;;
23722;SDS011;12042;52.136;5.584;2023-04-03T16:25:04;1.98;;;1.42;;
23722;SDS011;12042;52.136;5.584;2023-04-03T16:27:31;2.88;;;1.73;;